Time;durP1;ratioP1;P1;durP2;ratioP2;P2;SDS_P1;SDS_P2;PMS_P1;PMS_P2;Temp;Humidity;BMP_temperature;BMP_pressure;BME280_temperature;BME280_humidity;BME280_pressure;Samples;Min_cycle;Max_cycle;Signal;HPM_P1;HPM_P2
2022/06/23 00:01:13;;;;;;;13.52;6.38;;;;;;;17.91;100.00;95306.44;4926098;29;20217;-81
2022/06/23 00:03:38;;;;;;;12.60;6.15;;;;;;;17.81;100.00;95312.88;4924656;29;20666;-79
2022/06/23 00:06:07;;;;;;;8.05;5.88;;;;;;;17.91;100.00;95309.06;4924790;29;20202;-80
2022/06/23 00:08:42;;;;;;;8.60;6.00;;;;;;;17.94;100.00;95313.94;4909553;29;20261;-80
2022/06/23 00:11:24;;;;;;;12.10;6.43;;;;;;;17.84;100.00;95309.03;4908688;29;20181;-82
2022/06/23 00:13:50;;;;;;;14.85;6.60;;;;;;;17.76;100.00;95302.16;4923203;29;20221;-81
2022/06/23 00:16:26;;;;;;;14.68;7.00;;;;;;;17.61;100.00;95298.03;4924225;29;20186;-82
2022/06/23 00:18:52;;;;;;;8.93;6.28;;;;;;;17.56;100.00;95294.19;4910101;29;20264;-81
2022/06/23 00:21:28;;;;;;;9.68;6.18;;;;;;;17.43;100.00;95309.06;4910058;29;20216;-79
2022/06/23 00:24:00;;;;;;;12.02;6.88;;;;;;;17.27;100.00;95313.66;4921287;29;20197;-80
2022/06/23 00:26:28;;;;;;;11.57;6.30;;;;;;;17.17;100.00;95307.13;4907610;29;20305;-81
2022/06/23 00:28:59;;;;;;;10.07;6.53;;;;;;;17.16;100.00;95308.16;4924493;29;20210;-80
2022/06/23 00:31:38;;;;;;;12.50;5.57;;;;;;;17.08;100.00;95313.53;4908182;29;20209;-80
2022/06/23 00:34:24;;;;;;;9.80;5.32;;;;;;;16.93;100.00;95311.03;4907331;29;20214;-81
2022/06/23 00:37:17;;;;;;;11.15;5.85;;;;;;;16.91;100.00;95302.53;4925637;29;20174;-81
2022/06/23 00:39:52;;;;;;;9.57;6.05;;;;;;;16.87;100.00;95296.06;4905016;29;20218;-81
2022/06/23 00:42:28;;;;;;;10.48;5.22;;;;;;;16.98;100.00;95296.34;4908159;29;20188;-81
2022/06/23 00:45:26;;;;;;;8.27;5.15;;;;;;;16.92;100.00;95293.69;4943708;29;20192;-80
2022/06/23 00:48:08;;;;;;;11.57;6.10;;;;;;;16.82;100.00;95291.41;4907659;29;20276;-80
2022/06/23 00:50:44;;;;;;;11.85;5.90;;;;;;;16.80;100.00;95295.22;4910722;29;20228;-81
2022/06/23 00:53:13;;;;;;;10.10;6.20;;;;;;;16.76;100.00;95293.97;4924464;29;20185;-81
2022/06/23 00:55:50;;;;;;;11.38;6.30;;;;;;;16.77;100.00;95296.41;4941331;29;20178;-81
2022/06/23 00:58:47;;;;;;;14.18;6.82;;;;;;;16.71;100.00;95299.81;4923340;29;20185;-81
2022/06/23 01:01:17;;;;;;;12.80;6.53;;;;;;;16.80;100.00;95303.09;4923591;29;20624;-80
2022/06/23 01:03:45;;;;;;;11.18;5.90;;;;;;;16.73;100.00;95310.09;4933209;28;20190;-78
2022/06/23 01:06:27;;;;;;;10.85;6.47;;;;;;;16.66;100.00;95310.81;4956573;28;20178;-79
2022/06/23 01:09:02;;;;;;;12.20;6.38;;;;;;;16.65;100.00;95313.63;4923708;29;20236;-79
2022/06/23 01:11:52;;;;;;;11.85;6.75;;;;;;;16.61;100.00;95320.28;4920773;29;20181;-80
2022/06/23 01:14:29;;;;;;;15.13;7.03;;;;;;;16.55;100.00;95318.41;4942235;28;20193;-80
2022/06/23 01:17:17;;;;;;;13.35;8.00;;;;;;;16.46;100.00;95325.59;4952633;29;20178;-78
2022/06/23 01:19:50;;;;;;;15.15;8.23;;;;;;;16.53;100.00;95333.50;4904308;29;20265;-79
2022/06/23 01:22:33;;;;;;;10.45;7.40;;;;;;;16.57;100.00;95332.13;4946104;28;20675;-80
2022/06/23 01:25:22;;;;;;;14.15;7.13;;;;;;;16.57;100.00;95332.94;4956486;29;20184;-81
2022/06/23 01:28:11;;;;;;;14.50;7.18;;;;;;;16.66;100.00;95326.56;4924275;29;20201;-79
2022/06/23 01:30:50;;;;;;;12.48;6.75;;;;;;;16.81;100.00;95325.69;4939132;29;20208;-81
2022/06/23 01:33:29;;;;;;;11.75;7.00;;;;;;;16.75;100.00;95337.75;4939572;29;20268;-79
2022/06/23 01:36:06;;;;;;;10.48;7.65;;;;;;;16.63;100.00;95337.44;4922333;29;20188;-80
2022/06/23 01:38:46;;;;;;;14.38;7.93;;;;;;;16.51;100.00;95335.50;4938762;29;20576;-79
2022/06/23 01:41:18;;;;;;;15.48;7.47;;;;;;;16.45;100.00;95334.47;4922995;29;20692;-79
2022/06/23 01:43:49;;;;;;;13.23;8.80;;;;;;;16.42;100.00;95335.63;4939188;29;20181;-81
2022/06/23 01:46:20;;;;;;;12.55;7.97;;;;;;;16.35;100.00;95336.59;4929748;29;20181;-82
2022/06/23 01:49:01;;;;;;;12.27;7.63;;;;;;;16.29;100.00;95334.72;4932077;28;20205;-82
2022/06/23 01:51:40;;;;;;;12.57;7.35;;;;;;;16.31;100.00;95335.31;4949587;29;20572;-81
2022/06/23 01:54:12;;;;;;;11.45;7.03;;;;;;;16.32;100.00;95335.13;4932672;29;20187;-82
2022/06/23 01:56:51;;;;;;;12.77;7.50;;;;;;;16.24;100.00;95334.44;4931897;29;20200;-80
2022/06/23 01:59:24;;;;;;;14.63;7.45;;;;;;;16.21;100.00;95342.69;4947572;29;20208;-80
2022/06/23 02:02:11;;;;;;;13.57;7.78;;;;;;;16.19;100.00;95342.06;4946373;29;20200;-81
2022/06/23 02:04:44;;;;;;;9.85;6.93;;;;;;;16.17;100.00;95347.50;4943656;29;20645;-81
2022/06/23 02:07:21;;;;;;;13.02;7.13;;;;;;;16.16;100.00;95340.63;4960483;28;20185;-80
2022/06/23 02:09:52;;;;;;;10.05;6.43;;;;;;;16.11;100.00;95340.38;4942576;28;20251;-82
2022/06/23 02:12:41;;;;;;;11.02;6.45;;;;;;;16.09;100.00;95340.59;4942655;29;20609;-81
2022/06/23 02:15:23;;;;;;;10.35;6.90;;;;;;;16.06;100.00;95342.75;4942389;29;20202;-81
2022/06/23 02:17:55;;;;;;;11.50;6.85;;;;;;;16.00;100.00;95340.88;4942984;29;20165;-81
2022/06/23 02:20:26;;;;;;;11.02;5.57;;;;;;;15.99;100.00;95336.63;4927131;28;20240;-80
2022/06/23 02:23:01;;;;;;;11.20;6.32;;;;;;;15.98;100.00;95338.44;4927729;29;20185;-81
2022/06/23 02:25:31;;;;;;;10.57;5.90;;;;;;;15.98;100.00;95341.06;4930689;29;20187;-82
2022/06/23 02:28:03;;;;;;;10.63;6.20;;;;;;;15.91;100.00;95339.38;4930159;29;20334;-81
2022/06/23 02:30:49;;;;;;;8.85;5.78;;;;;;;15.86;100.00;95337.31;4945863;29;20197;-80
2022/06/23 02:33:44;;;;;;;9.95;5.68;;;;;;;15.82;100.00;95338.69;4964090;29;20209;-80
2022/06/23 02:36:24;;;;;;;8.77;5.35;;;;;;;15.82;100.00;95346.53;4884715;29;20196;-80
2022/06/23 02:38:54;;;;;;;8.43;5.55;;;;;;;15.79;100.00;95344.28;4869427;29;20179;-81
2022/06/23 02:41:39;;;;;;;10.85;5.53;;;;;;;15.77;100.00;95341.84;4869736;29;20188;-81
2022/06/23 02:44:19;;;;;;;8.93;6.32;;;;;;;15.75;100.00;95346.47;4854587;29;20297;-81
2022/06/23 02:47:01;;;;;;;9.95;5.72;;;;;;;15.76;100.00;95355.94;4885563;29;20202;-81
2022/06/23 02:49:40;;;;;;;9.40;5.28;;;;;;;15.76;100.00;95361.16;4855036;29;20318;-81
2022/06/23 02:52:28;;;;;;;13.40;6.00;;;;;;;15.78;100.00;95364.41;4870243;29;20643;-80
2022/06/23 02:55:15;;;;;;;11.80;5.63;;;;;;;15.82;100.00;95359.63;4854674;29;20176;-81
2022/06/23 02:57:50;;;;;;;10.50;5.78;;;;;;;15.88;100.00;95369.34;4868858;29;20203;-82
2022/06/23 03:00:27;;;;;;;8.38;5.80;;;;;;;15.86;100.00;95361.69;4854607;29;20445;-82
2022/06/23 03:03:19;;;;;;;10.82;6.47;;;;;;;15.81;100.00;95363.22;4870152;29;20216;-82
2022/06/23 03:05:55;;;;;;;11.50;6.22;;;;;;;15.82;100.00;95357.81;4869332;29;20188;-81
2022/06/23 03:08:39;;;;;;;13.13;6.35;;;;;;;15.82;100.00;95357.00;4870089;29;20281;-80
2022/06/23 03:11:15;;;;;;;7.93;5.80;;;;;;;15.84;100.00;95363.69;4854231;29;20219;-82
2022/06/23 03:13:50;;;;;;;13.85;6.53;;;;;;;15.81;100.00;95363.22;4926960;28;20603;-80
2022/06/23 03:16:32;;;;;;;11.82;5.80;;;;;;;15.80;100.00;95366.84;4946426;29;20195;-82
2022/06/23 03:19:14;;;;;;;10.63;6.03;;;;;;;15.78;100.00;95366.22;4930037;29;20240;-79
2022/06/23 03:22:01;;;;;;;17.25;6.43;;;;;;;15.86;100.00;95363.50;4928137;29;20177;-81
2022/06/23 03:24:47;;;;;;;11.13;5.93;;;;;;;15.89;100.00;95370.97;4929370;29;20301;-81
2022/06/23 03:27:21;;;;;;;9.45;5.65;;;;;;;15.85;100.00;95364.50;4930252;29;20601;-81
2022/06/23 03:29:54;;;;;;;8.68;5.47;;;;;;;16.09;100.00;95360.72;4945905;29;20210;-81
2022/06/23 03:32:28;;;;;;;8.32;5.30;;;;;;;16.06;100.00;95364.50;4946134;29;20676;-81
2022/06/23 03:35:12;;;;;;;8.52;5.72;;;;;;;16.09;100.00;95371.19;4929673;29;20184;-81
2022/06/23 03:37:51;;;;;;;12.35;5.70;;;;;;;16.18;100.00;95369.28;4946979;29;20181;-81
2022/06/23 03:43:21;;;;;;;9.85;5.57;;;;;;;16.37;100.00;95377.31;4949786;29;20211;-81
2022/06/23 03:46:16;;;;;;;10.43;6.25;;;;;;;16.52;100.00;95374.66;4946334;29;20177;-81
2022/06/23 03:48:56;;;;;;;9.60;5.20;;;;;;;16.83;100.00;95373.50;4963135;29;20369;-79
2022/06/23 03:51:25;;;;;;;8.95;5.43;;;;;;;16.96;100.00;95373.59;4930380;29;20324;-79
2022/06/23 03:54:09;;;;;;;10.07;5.38;;;;;;;17.23;100.00;95375.41;4945735;29;20184;-81
2022/06/23 03:56:41;;;;;;;9.52;5.38;;;;;;;18.03;97.43;95371.34;4946329;29;20661;-79
2022/06/23 03:59:17;;;;;;;11.40;5.82;;;;;;;17.97;94.91;95379.19;4947829;29;20223;-81
2022/06/23 04:01:49;;;;;;;8.38;4.75;;;;;;;18.40;92.75;95375.28;4946721;29;20181;-80
2022/06/23 04:04:17;;;;;;;8.30;5.38;;;;;;;18.77;91.85;95375.72;4919158;29;20200;-80
2022/06/23 04:06:47;;;;;;;10.85;5.30;;;;;;;18.93;87.62;95379.78;4938379;28;20552;-79
2022/06/23 04:09:27;;;;;;;10.93;5.25;;;;;;;18.77;89.91;95394.13;4931526;29;20350;-79
2022/06/23 04:12:07;;;;;;;8.25;5.20;;;;;;;18.72;90.15;95393.91;4946009;29;20780;-79
2022/06/23 04:14:53;;;;;;;9.52;5.05;;;;;;;19.43;84.75;95395.88;4929411;29;20252;-81
2022/06/23 04:17:39;;;;;;;6.40;4.57;;;;;;;20.93;79.27;95395.38;4930681;29;20185;-79
2022/06/23 04:20:12;;;;;;;10.95;4.68;;;;;;;21.04;76.04;95408.94;4946397;29;20188;-78
2022/06/23 04:22:42;;;;;;;9.75;5.43;;;;;;;20.50;78.36;95411.16;4946027;28;20245;-79
2022/06/23 04:25:13;;;;;;;7.88;4.38;;;;;;;20.02;80.99;95402.84;4946713;29;20227;-79
2022/06/23 04:27:41;;;;;;;10.93;4.70;;;;;;;20.47;80.70;95406.28;4946429;29;20177;-80
2022/06/23 04:30:07;;;;;;;8.82;4.53;;;;;;;20.79;77.69;95399.16;4929867;29;20228;-80
2022/06/23 04:32:35;;;;;;;11.27;4.47;;;;;;;21.48;75.27;95402.66;4927415;29;20191;-80
2022/06/23 04:35:03;;;;;;;10.02;5.03;;;;;;;21.77;71.09;95394.00;4927847;28;20177;-79
2022/06/23 04:37:54;;;;;;;6.32;3.65;;;;;;;23.49;66.23;95396.00;4940289;29;20182;-81
2022/06/23 04:40:24;;;;;;;7.03;4.25;;;;;;;24.71;61.96;95397.66;4923600;29;20209;-82
2022/06/23 04:42:57;;;;;;;10.18;3.78;;;;;;;25.27;56.40;95414.56;4925810;29;20597;-82
2022/06/23 04:45:34;;;;;;;6.38;3.58;;;;;;;25.68;54.85;95415.94;4926194;29;20186;-81
2022/06/23 04:48:01;;;;;;;11.65;3.47;;;;;;;25.72;54.94;95418.94;4925581;29;20216;-79
2022/06/23 04:50:40;;;;;;;10.38;3.80;;;;;;;26.38;53.94;95409.13;4925920;29;20186;-81
2022/06/23 04:53:05;;;;;;;7.03;3.63;;;;;;;27.22;50.88;95409.41;4906937;29;20665;-79
2022/06/23 04:55:33;;;;;;;9.65;3.35;;;;;;;28.25;48.25;95411.59;4904587;29;20190;-80
2022/06/23 04:58:12;;;;;;;11.68;3.35;;;;;;;29.41;45.14;95412.88;4920933;29;20201;-81
2022/06/23 05:00:46;;;;;;;8.20;3.78;;;;;;;28.15;47.25;95407.03;4920701;29;20233;-80
2022/06/23 05:03:18;;;;;;;7.60;3.63;;;;;;;29.58;42.54;95413.41;4921105;29;20197;-81
2022/06/23 05:05:44;;;;;;;8.13;3.53;;;;;;;28.98;44.86;95415.03;4909205;29;20200;-80
2022/06/23 05:08:16;;;;;;;8.60;3.30;;;;;;;29.83;44.04;95419.78;4922814;29;20202;-81
2022/06/23 05:10:52;;;;;;;8.23;3.25;;;;;;;31.01;39.36;95415.53;4920257;29;20205;-81
2022/06/23 05:13:20;;;;;;;9.65;3.30;;;;;;;31.48;38.65;95412.19;4920756;29;20815;-81
2022/06/23 05:15:49;;;;;;;8.38;4.63;;;;;;;30.44;40.32;95414.22;4924129;28;20188;-81
2022/06/23 05:18:24;;;;;;;10.70;3.83;;;;;;;30.90;39.05;95417.44;4941530;28;20183;-81
2022/06/23 05:20:59;;;;;;;8.70;3.40;;;;;;;31.20;38.71;95411.06;4931068;29;20197;-81
2022/06/23 05:23:30;;;;;;;8.90;3.20;;;;;;;31.75;38.13;95411.66;4935981;29;20177;-81
2022/06/23 05:26:03;;;;;;;8.98;3.75;;;;;;;30.66;40.09;95403.97;4934546;29;20277;-81
2022/06/23 05:28:31;;;;;;;9.10;3.20;;;;;;;30.92;40.02;95407.28;4933785;29;20256;-81
2022/06/23 05:30:59;;;;;;;10.50;3.72;;;;;;;30.60;39.79;95409.59;4920524;29;20260;-81
2022/06/23 05:33:33;;;;;;;7.65;3.17;;;;;;;33.61;33.46;95407.00;4937339;29;20178;-81
2022/06/23 05:36:03;;;;;;;12.05;3.65;;;;;;;32.71;35.09;95402.75;4909524;29;20662;-81
2022/06/23 05:38:39;;;;;;;7.60;3.60;;;;;;;30.92;39.81;95406.44;4927774;28;20264;-81
2022/06/23 05:41:12;;;;;;;9.00;4.05;;;;;;;30.43;40.31;95412.63;4922785;29;20188;-81
2022/06/23 05:43:41;;;;;;;10.65;3.55;;;;;;;31.16;37.59;95404.66;4942296;29;20209;-82
2022/06/23 05:46:09;;;;;;;9.32;4.65;;;;;;;32.48;35.83;95413.25;4915407;29;20267;-80
2022/06/23 05:48:38;;;;;;;11.35;3.30;;;;;;;32.52;35.78;95413.50;4919774;29;20229;-83
2022/06/23 05:51:10;;;;;;;9.15;3.05;;;;;;;34.11;32.17;95420.66;4934753;29;20193;-82
2022/06/23 05:53:44;;;;;;;8.30;3.50;;;;;;;33.20;34.55;95413.84;4938018;29;20189;-82
2022/06/23 05:56:14;;;;;;;6.68;3.25;;;;;;;33.49;33.97;95410.97;4955180;29;20180;-81
2022/06/23 05:58:46;;;;;;;9.30;3.78;;;;;;;32.52;34.70;95405.44;4930489;29;20182;-81
2022/06/23 06:01:19;;;;;;;6.57;3.60;;;;;;;31.56;37.83;95405.41;4930072;29;20182;-81
2022/06/23 06:03:54;;;;;;;12.57;4.20;;;;;;;31.48;37.96;95412.19;4944137;29;20193;-82
2022/06/23 06:06:20;;;;;;;12.88;4.60;;;;;;;33.23;33.92;95410.59;4937437;29;20188;-82
2022/06/23 06:11:44;;;;;;;8.52;3.60;;;;;;;33.87;32.43;95410.81;4937161;29;20201;-82
2022/06/23 06:14:12;;;;;;;9.10;3.95;;;;;;;33.69;32.52;95420.59;4930550;29;20184;-81
2022/06/23 06:16:37;;;;;;;12.15;3.85;;;;;;;33.07;32.67;95414.59;4909210;29;20276;-82
2022/06/23 06:19:04;;;;;;;10.88;3.47;;;;;;;32.66;34.89;95422.44;4939807;29;20615;-82
2022/06/23 06:21:29;;;;;;;8.45;3.40;;;;;;;32.77;34.10;95420.38;4918946;29;20185;-81
2022/06/23 06:24:17;;;;;;;7.68;3.42;;;;;;;32.33;34.92;95416.16;4919189;29;20681;-82
2022/06/23 06:26:46;;;;;;;9.18;3.50;;;;;;;33.97;32.73;95417.94;4931866;29;20226;-82
2022/06/23 06:29:14;;;;;;;7.63;3.33;;;;;;;32.83;33.65;95422.72;4932628;29;20241;-82
2022/06/23 06:31:46;;;;;;;10.93;3.88;;;;;;;33.44;33.37;95419.13;4911801;29;20193;-81
2022/06/23 06:34:17;;;;;;;6.93;3.10;;;;;;;32.90;33.81;95414.31;4918693;29;20188;-82
2022/06/23 06:36:53;;;;;;;6.20;3.17;;;;;;;34.53;30.09;95406.03;4907145;29;20646;-82
2022/06/23 06:39:23;;;;;;;8.88;3.15;;;;;;;35.11;29.48;95416.09;4918224;29;20546;-81
2022/06/23 06:42:18;;;;;;;7.88;3.03;;;;;;;33.84;30.83;95416.00;4912487;29;20205;-82
2022/06/23 06:44:46;;;;;;;10.15;3.15;;;;;;;32.76;33.63;95414.22;4920781;29;20196;-81
2022/06/23 06:47:18;;;;;;;9.55;3.42;;;;;;;33.12;32.29;95419.09;4923624;29;20258;-82
2022/06/23 06:49:44;;;;;;;10.38;3.40;;;;;;;33.26;32.75;95419.94;4915394;28;20213;-82
2022/06/23 06:52:11;;;;;;;7.57;3.17;;;;;;;33.16;32.20;95422.81;4919115;29;20268;-82
2022/06/23 06:54:41;;;;;;;10.88;3.75;;;;;;;33.29;32.46;95413.97;4911447;29;20189;-83
2022/06/23 06:57:16;;;;;;;8.52;3.50;;;;;;;33.63;31.23;95421.75;4937731;29;20193;-82
2022/06/23 07:00:06;;;;;;;6.97;2.88;;;;;;;33.13;33.01;95418.81;4952448;28;20272;-81
2022/06/23 07:02:41;;;;;;;13.73;3.40;;;;;;;33.10;32.79;95426.66;4936604;29;20189;-82
2022/06/23 07:05:17;;;;;;;7.68;2.83;;;;;;;33.07;33.40;95425.38;4922947;29;20185;-82
2022/06/23 07:07:45;;;;;;;4.60;2.67;;;;;;;33.18;32.70;95432.19;4936794;29;20667;-82
2022/06/23 07:19:34;;;;;;;8.82;2.88;;;;;;;31.70;34.40;95432.38;4914047;29;20219;-80
2022/06/23 07:22:58;;;;;;;10.52;3.38;;;;;;;32.21;34.48;95423.78;4869358;29;20664;-81
2022/06/23 07:36:52;;;;;;;;;;;;;;;;;;;;;
2022/06/23 08:00:27;;;;;;;7.78;3.65;;;;;;;29.65;41.52;95415.00;5024687;23;20311;-82
2022/06/23 08:07:41;;;;;;;9.73;3.60;;;;;;;30.18;40.73;95400.94;4745846;30;20256;-82
2022/06/23 08:27:28;;;;;;;7.70;3.25;;;;;;;27.95;45.34;95388.28;4866576;29;20199;-83
2022/06/23 08:58:20;;;;;;;8.95;3.40;;;;;;;27.30;46.37;95355.63;4952206;28;20199;-81
2022/06/23 10:02:22;;;;;;;7.60;3.50;;;;;;;29.13;40.92;95333.22;4255403;23;20229;-81
2022/06/23 10:05:10;;;;;;;6.97;2.60;;;;;;;28.77;40.53;95335.88;4931774;29;20253;-80
2022/06/23 10:08:02;;;;;;;7.10;3.15;;;;;;;28.07;42.41;95323.97;4928225;29;20198;-80
2022/06/23 10:11:06;;;;;;;10.57;3.00;;;;;;;28.90;42.25;95332.72;4912537;29;20209;-80
2022/06/23 10:13:54;;;;;;;11.85;2.97;;;;;;;29.12;41.35;95339.63;4918850;29;20190;-81
2022/06/23 10:16:46;;;;;;;20.02;3.67;;;;;;;29.06;41.89;95341.50;4918699;29;20190;-81
2022/06/23 10:19:41;;;;;;;10.65;3.22;;;;;;;28.46;43.33;95338.53;4936388;29;20214;-81
2022/06/23 10:22:35;;;;;;;10.10;3.30;;;;;;;29.03;41.96;95326.00;4934553;28;20189;-81
2022/06/23 10:25:14;;;;;;;9.45;3.28;;;;;;;29.20;41.94;95328.41;4917651;29;20178;-81
2022/06/23 10:27:43;;;;;;;10.48;3.53;;;;;;;29.31;41.91;95332.66;4919438;29;20221;-80
2022/06/23 10:30:29;;;;;;;8.15;3.08;;;;;;;28.14;42.41;95319.19;4930780;29;20694;-81
2022/06/23 10:33:07;;;;;;;11.70;3.53;;;;;;;27.51;44.37;95315.75;4936755;29;20225;-80
2022/06/23 10:35:54;;;;;;;11.93;3.60;;;;;;;27.78;44.15;95313.75;4918685;29;20189;-80
2022/06/23 10:38:31;;;;;;;9.05;3.55;;;;;;;28.01;43.52;95311.72;4906528;29;20212;-80
2022/06/23 10:41:12;;;;;;;10.27;3.10;;;;;;;28.41;42.31;95311.81;4902268;29;20681;-80
2022/06/23 10:43:44;;;;;;;9.00;3.05;;;;;;;28.54;41.95;95310.50;4919783;29;20229;-81
2022/06/23 10:46:18;;;;;;;8.38;2.85;;;;;;;28.16;42.77;95307.19;4923165;29;20182;-81
2022/06/23 10:48:51;;;;;;;7.80;2.70;;;;;;;28.83;40.96;95307.28;4926276;29;20232;-81
2022/06/23 10:51:38;;;;;;;12.48;4.65;;;;;;;28.77;39.65;95301.13;4908542;29;20301;-81
2022/06/23 10:54:19;;;;;;;7.45;2.78;;;;;;;28.99;40.05;95296.34;4910009;29;20189;-80
2022/06/23 10:57:07;;;;;;;9.55;3.08;;;;;;;28.44;41.74;95297.91;4939124;29;20240;-81
2022/06/23 10:59:56;;;;;;;8.75;3.13;;;;;;;28.85;41.85;95294.47;4921936;29;20249;-81
2022/06/23 11:03:23;;;;;;;6.25;2.85;;;;;;;29.33;40.68;95298.41;4926398;29;20201;-81
2022/06/23 11:06:09;;;;;;;8.98;3.22;;;;;;;29.75;39.80;95297.22;4892718;29;20198;-81
2022/06/23 11:09:06;;;;;;;9.55;3.08;;;;;;;29.49;40.00;95291.19;4923289;29;20666;-81
2022/06/23 11:11:52;;;;;;;9.35;3.35;;;;;;;29.37;37.88;95294.13;4924976;29;20185;-81
2022/06/23 11:14:42;;;;;;;8.15;2.78;;;;;;;29.11;39.16;95284.56;4924162;29;20185;-80
2022/06/23 11:17:44;;;;;;;10.40;3.40;;;;;;;29.28;39.41;95287.75;4923987;29;20194;-82
2022/06/23 11:20:47;;;;;;;7.03;2.72;;;;;;;29.82;38.93;95276.34;4928820;29;20201;-81
2022/06/23 11:23:34;;;;;;;8.73;2.60;;;;;;;29.64;39.98;95275.06;4940308;29;20665;-84
2022/06/23 11:26:07;;;;;;;9.15;3.42;;;;;;;29.20;39.58;95277.59;4907802;29;20192;-81
2022/06/23 11:29:11;;;;;;;8.68;3.17;;;;;;;29.50;39.54;95277.53;4938519;29;20527;-81
2022/06/23 11:31:49;;;;;;;8.68;2.97;;;;;;;29.80;37.35;95275.81;4937487;29;20351;-80
2022/06/23 11:34:24;;;;;;;8.40;3.08;;;;;;;30.27;37.07;95269.94;4899754;29;20186;-78
2022/06/23 11:36:56;;;;;;;11.02;2.75;;;;;;;30.39;36.17;95265.06;4897445;29;20194;-79
2022/06/23 11:39:53;;;;;;;6.85;2.40;;;;;;;30.08;36.28;95266.31;4913061;29;20191;-79
2022/06/23 11:42:34;;;;;;;10.68;2.78;;;;;;;29.28;37.90;95261.00;4935127;29;20178;-79
2022/06/23 11:45:04;;;;;;;11.00;3.05;;;;;;;28.62;40.05;95250.38;4921853;29;20182;-79
2022/06/23 11:47:35;;;;;;;8.32;2.60;;;;;;;29.34;39.78;95252.69;4938457;29;20221;-78
2022/06/23 11:50:11;;;;;;;11.77;3.08;;;;;;;29.57;38.30;95245.94;4938031;29;20214;-78
2022/06/23 11:52:45;;;;;;;11.73;3.30;;;;;;;29.58;37.44;95246.72;4902505;29;20182;-78
2022/06/23 11:55:28;;;;;;;8.57;2.90;;;;;;;29.66;37.49;95245.38;4911402;29;20186;-78
2022/06/23 11:58:07;;;;;;;6.90;2.90;;;;;;;29.64;37.38;95244.84;4920656;29;20209;-78
2022/06/23 12:01:02;;;;;;;9.07;2.90;;;;;;;30.24;36.46;95248.28;4899209;29;20777;-78
2022/06/23 12:03:49;;;;;;;8.52;2.63;;;;;;;30.27;37.01;95248.50;4909146;29;20710;-79
2022/06/23 12:06:30;;;;;;;7.40;2.83;;;;;;;30.27;36.33;95239.69;4929767;29;20185;-78
2022/06/23 12:09:20;;;;;;;9.27;2.60;;;;;;;29.92;36.60;95238.00;4931667;29;20269;-79
2022/06/23 12:11:45;;;;;;;7.50;2.70;;;;;;;29.84;36.63;95234.81;4915229;29;20344;-78
2022/06/23 12:14:13;;;;;;;8.00;2.60;;;;;;;29.62;36.81;95234.41;4911481;29;20178;-78
2022/06/23 12:16:42;;;;;;;8.90;2.58;;;;;;;29.55;37.13;95237.38;4896770;29;20689;-78
2022/06/23 12:19:11;;;;;;;7.18;2.63;;;;;;;29.85;36.27;95219.56;4916778;29;20301;-80
2022/06/23 12:21:59;;;;;;;8.18;2.85;;;;;;;29.75;36.26;95230.34;4894870;29;20190;-78
2022/06/23 12:24:46;;;;;;;7.22;2.70;;;;;;;30.20;35.88;95229.28;4919090;29;20178;-79
2022/06/23 12:27:39;;;;;;;4.60;2.20;;;;;;;30.57;34.81;95228.75;4921398;29;20253;-79
2022/06/23 12:30:15;;;;;;;6.03;2.40;;;;;;;30.61;34.81;95221.72;4921390;29;20625;-79
2022/06/23 12:32:51;;;;;;;14.00;2.60;;;;;;;30.67;34.07;95214.47;4911507;29;20272;-79
2022/06/23 12:35:54;;;;;;;10.35;3.20;;;;;;;30.40;34.52;95209.59;4904246;29;20190;-78
2022/06/23 12:38:25;;;;;;;8.27;2.70;;;;;;;30.48;33.76;95210.84;4929689;29;20172;-79
2022/06/23 12:41:22;;;;;;;8.07;2.80;;;;;;;30.34;33.60;95210.72;4920827;29;20205;-79
2022/06/23 12:43:58;;;;;;;9.20;2.35;;;;;;;30.11;33.95;95215.69;4863647;29;20206;-79
2022/06/23 12:46:41;;;;;;;9.10;2.92;;;;;;;30.04;33.76;95191.09;4863475;29;20341;-78
2022/06/23 12:49:20;;;;;;;8.85;2.42;;;;;;;29.98;34.13;95197.53;4878530;29;20227;-79
2022/06/23 12:51:54;;;;;;;9.85;2.90;;;;;;;30.47;35.08;95191.28;4876016;29;20192;-78
2022/06/23 12:54:46;;;;;;;7.60;2.65;;;;;;;30.00;34.17;95200.75;4854213;29;20187;-78
2022/06/23 12:57:28;;;;;;;10.57;2.80;;;;;;;29.79;34.92;95184.03;4866869;29;20212;-78
2022/06/23 13:00:23;;;;;;;8.55;2.60;;;;;;;30.35;34.42;95174.81;4848266;29;20243;-78
2022/06/23 13:02:56;;;;;;;7.47;2.38;;;;;;;29.99;35.21;95172.38;4855665;29;20191;-79
2022/06/23 13:05:37;;;;;;;5.75;1.98;;;;;;;29.88;34.13;95176.22;4862797;29;20248;-79
2022/06/23 13:08:08;;;;;;;10.68;2.70;;;;;;;29.47;35.10;95175.59;4866108;29;20195;-79
2022/06/23 13:10:36;;;;;;;9.50;2.72;;;;;;;29.97;33.62;95166.50;4839465;29;20216;-79
2022/06/23 13:13:21;;;;;;;8.73;2.50;;;;;;;29.59;33.37;95163.50;4855435;29;20211;-78
2022/06/23 13:15:59;;;;;;;8.55;2.45;;;;;;;29.84;33.20;95165.22;4846992;29;20321;-78
2022/06/23 13:18:37;;;;;;;5.47;2.45;;;;;;;29.78;33.61;95160.22;4860914;29;20216;-79
2022/06/23 13:21:26;;;;;;;11.00;2.00;;;;;;;30.00;33.07;95144.53;4892838;29;20285;-79
2022/06/23 13:23:59;;;;;;;5.95;2.08;;;;;;;29.75;33.68;95148.16;4895512;29;20178;-78
2022/06/23 13:26:33;;;;;;;7.75;2.13;;;;;;;29.30;34.16;95139.31;4907410;29;20186;-79
2022/06/23 13:29:15;;;;;;;9.60;2.30;;;;;;;29.06;36.01;95146.34;4913099;29;20213;-78
2022/06/23 13:31:49;;;;;;;9.68;2.42;;;;;;;28.99;35.21;95140.53;4909866;29;20179;-78
2022/06/23 13:34:29;;;;;;;10.45;3.15;;;;;;;29.24;34.85;95139.59;4915908;29;20280;-77
2022/06/23 13:37:10;;;;;;;6.68;2.28;;;;;;;29.93;34.98;95152.06;4925617;28;20183;-77
2022/06/23 13:39:57;;;;;;;8.82;2.42;;;;;;;30.16;33.86;95139.88;4914281;28;20195;-77
2022/06/23 13:42:30;;;;;;;7.63;2.15;;;;;;;30.60;32.04;95130.91;4910985;29;20218;-78
2022/06/23 13:45:01;;;;;;;6.43;2.20;;;;;;;30.51;32.24;95130.72;4929021;29;20174;-77
2022/06/23 13:47:43;;;;;;;7.55;2.05;;;;;;;30.30;32.14;95130.09;4934286;29;20242;-77
2022/06/23 13:50:28;;;;;;;8.35;2.42;;;;;;;29.91;32.84;95119.44;4917256;29;20209;-79
2022/06/23 13:53:07;;;;;;;5.45;1.77;;;;;;;29.83;32.95;95114.66;4916208;29;20194;-79
2022/06/23 13:56:03;;;;;;;5.72;2.40;;;;;;;30.16;33.70;95113.91;4936644;29;20186;-80
2022/06/23 13:58:35;;;;;;;5.88;2.20;;;;;;;30.40;32.77;95107.81;4930878;29;20225;-80
2022/06/23 14:01:05;;;;;;;7.20;2.55;;;;;;;30.53;31.88;95100.97;4919024;29;20192;-78
2022/06/23 14:03:42;;;;;;;7.30;2.38;;;;;;;30.70;32.14;95091.41;4917717;29;20201;-78
2022/06/23 14:06:16;;;;;;;8.15;2.42;;;;;;;30.97;31.68;95103.44;4898399;29;20189;-78
2022/06/23 14:08:54;;;;;;;9.43;2.95;;;;;;;31.20;31.47;95097.25;4913750;29;20212;-78
2022/06/23 14:11:24;;;;;;;5.82;2.15;;;;;;;31.53;30.95;95092.00;4913470;29;20188;-78
2022/06/23 14:14:02;;;;;;;5.63;2.20;;;;;;;30.71;32.13;95092.22;4933711;29;20178;-77
2022/06/23 14:16:38;;;;;;;7.38;2.83;;;;;;;30.61;31.95;95092.31;4917384;29;20264;-78
2022/06/23 14:19:24;;;;;;;7.90;2.45;;;;;;;30.08;32.46;95090.41;4920072;29;20208;-78
2022/06/23 14:22:13;;;;;;;9.40;2.40;;;;;;;30.09;33.14;95086.66;4921747;29;20194;-79
2022/06/23 14:24:46;;;;;;;9.10;2.33;;;;;;;30.42;33.20;95086.88;4923433;29;20265;-79
2022/06/23 14:27:23;;;;;;;9.25;2.75;;;;;;;30.36;33.13;95071.94;4923244;29;20216;-79
2022/06/23 14:30:06;;;;;;;8.20;2.97;;;;;;;30.27;33.41;95081.66;4921809;29;20209;-79
2022/06/23 14:32:50;;;;;;;9.10;2.42;;;;;;;29.96;33.60;95073.91;4902514;29;20277;-79
2022/06/23 14:35:53;;;;;;;8.02;2.63;;;;;;;29.85;34.55;95077.72;4935366;29;20279;-79
2022/06/23 14:38:30;;;;;;;7.43;2.30;;;;;;;29.74;34.48;95076.19;4894601;29;20212;-79
2022/06/23 14:41:08;;;;;;;7.18;3.22;;;;;;;30.08;33.62;95074.34;4912165;29;20289;-79
2022/06/23 14:44:08;;;;;;;5.32;2.28;;;;;;;30.48;32.71;95077.72;4901757;29;20194;-79
2022/06/23 14:46:41;;;;;;;9.65;2.50;;;;;;;31.35;30.86;95069.44;4921926;29;20229;-79
2022/06/23 14:49:20;;;;;;;7.68;2.17;;;;;;;31.15;30.97;95065.13;4900720;29;20261;-79
2022/06/23 14:52:02;;;;;;;7.40;2.50;;;;;;;31.02;31.57;95063.97;4916376;29;20205;-79
2022/06/23 14:54:40;;;;;;;7.45;2.42;;;;;;;31.56;30.30;95067.28;4917818;29;20216;-79
2022/06/23 14:57:30;;;;;;;9.32;2.65;;;;;;;31.32;30.94;95064.66;4912131;29;20209;-78
2022/06/23 15:00:11;;;;;;;9.15;2.70;;;;;;;32.14;29.57;95069.56;4915913;29;20201;-78